Aeroporto :
LOGIN :

Iscrizione | Disclaimer

   EN    FR    IT 

 










Sommario :    VFR   VFR Marginale   IFR   IFR Intensivo   IFR Molto Intensivo
Visibilità : 
Base nubi : 
>= 8 km
>= 3000ft
5 / 8 km
1000 / 3000 ft
1500m / 5 km
500 / 1000 ft
800 / 1500m
200 / 500 ft
< 800m
< 200 ft
Simboli :   Temporali  Nebbia  Neve Forte  Precipitazioni Forti  Vento > 20 kt
SIGMETs :   Varie  Temporali  Ghiacco  Turbolenza  Onda orograficha  Ceneri Vulcaniche






- Altitudine del aeroporto : 144 ft
- Codice IATA : PGF


LFMP - Perpignan

ULTIMO METAR :
  • 220430Z AUTO 30003KT 7000 -RA SCT020 BKN042 OVC058 13/12 Q1019 BECMG RA

METARs OBSOLETI :
  • 220400Z AUTO VRB02KT 5000 RA BR BKN019 OVC028 14/12 Q1019 NOSIG
  • 220330Z AUTO 28004KT 7000 -RA OVC020 14/12 Q1019 BECMG RA
  • 220300Z AUTO VRB03KT 9999 SCT022 BKN029 BKN034 14/12 Q1019 BECMG RA
  • 220230Z AUTO VRB02KT 9999 FEW023 OVC060 14/11 Q1019
  • 220200Z AUTO 28003KT 9999 FEW046 OVC070 14/12 Q1019
  • 220130Z AUTO 25003KT 9999 FEW025 SCT060 OVC074 14/11 Q1020

TAF TAF LFMP
Valido dal 22 a 03 ore il 23 a 03 ore UTC


220200Z 2203/2303 26005KT 9999 FEW015 BKN040
BECMG 2204/2206 7000 RA SCT010 OVC015
BECMG 2206/2208 30010KT
TEMPO 2208/2218 4000 TSRA OVC010 SCT035CB
TEMPO 2208/2212 31015G30KT 1000 +TSRA OVC008 BKN035CB
PROB30 2208/2212 +TSRAGR
TEMPO 2218/2301 NSW
TEMPO 2301/2303 2000 +TSRA BKN025CB
ATIS : +33 4 68 63 75 12



MetMap, La meteo Aeronautica in un colpo d'occhio ! - Copyright ORBIFLY Dicembre 2007 - Disclaimer

ORBIFLY MET'MAP TEAM :

Programmazione e sviluppo : Alexandra Zaïnal
Concezione e sviluppo : Baudouin d'Aumeries
Co-Programmazione e sviluppo : Marc-Olivier Méhu
Supporto tecnico e logistico : Manuel Goepfert
Aiuto per la traduzione : Arnaldo La Scala

Contatto : metmap@orbifly.com




FONTI E CREDITI :

   NOAA